sensor_id;sensor_type;location;lat;lon;timestamp;P1;durP1;ratioP1;P2;durP2;ratioP2
79346;SDS011;68815;48.810;44.482;2024-03-17T00:01:00;10.8;;;2.7;;
79346;SDS011;68815;48.810;44.482;2024-03-17T00:04:02;15.7;;;2.9;;
79346;SDS011;68815;48.810;44.482;2024-03-17T00:07:04;18.4;;;3;;
79346;SDS011;68815;48.810;44.482;2024-03-17T00:10:07;21.2;;;3.1;;
79346;SDS011;68815;48.810;44.482;2024-03-17T00:13:09;20;;;3;;
79346;SDS011;68815;48.810;44.482;2024-03-17T00:16:10;22;;;3.2;;
79346;SDS011;68815;48.810;44.482;2024-03-17T00:19:12;22;;;3.3;;
79346;SDS011;68815;48.810;44.482;2024-03-17T00:22:14;19.6;;;2.7;;
79346;SDS011;68815;48.810;44.482;2024-03-17T00:25:17;16.2;;;2.9;;
79346;SDS011;68815;48.810;44.482;2024-03-17T00:28:19;20.5;;;2.7;;
79346;SDS011;68815;48.810;44.482;2024-03-17T00:31:21;14.6;;;2.4;;
79346;SDS011;68815;48.810;44.482;2024-03-17T00:34:22;13.3;;;2.3;;
79346;SDS011;68815;48.810;44.482;2024-03-17T00:37:24;16.3;;;2.1;;
79346;SDS011;68815;48.810;44.482;2024-03-17T00:40:26;8.1;;;2.1;;
79346;SDS011;68815;48.810;44.482;2024-03-17T00:43:28;12.2;;;2.5;;
79346;SDS011;68815;48.810;44.482;2024-03-17T00:46:30;12.5;;;2.7;;
79346;SDS011;68815;48.810;44.482;2024-03-17T00:49:33;17.2;;;2.8;;
79346;SDS011;68815;48.810;44.482;2024-03-17T00:52:35;14.8;;;2.4;;
79346;SDS011;68815;48.810;44.482;2024-03-17T00:55:37;9.5;;;2.3;;
79346;SDS011;68815;48.810;44.482;2024-03-17T00:58:39;12.7;;;3.2;;
79346;SDS011;68815;48.810;44.482;2024-03-17T01:01:41;10.8;;;2.2;;
79346;SDS011;68815;48.810;44.482;2024-03-17T01:04:43;17.3;;;2.6;;
79346;SDS011;68815;48.810;44.482;2024-03-17T01:07:45;12.5;;;2.1;;
79346;SDS011;68815;48.810;44.482;2024-03-17T01:10:47;10.7;;;2.3;;
79346;SDS011;68815;48.810;44.482;2024-03-17T01:13:49;13.8;;;2.4;;
79346;SDS011;68815;48.810;44.482;2024-03-17T01:16:51;14.1;;;3.3;;
79346;SDS011;68815;48.810;44.482;2024-03-17T01:19:53;15.8;;;2.3;;
79346;SDS011;68815;48.810;44.482;2024-03-17T01:22:55;15.6;;;2.5;;
79346;SDS011;68815;48.810;44.482;2024-03-17T01:25:56;12.8;;;2.3;;
79346;SDS011;68815;48.810;44.482;2024-03-17T01:28:58;13.2;;;2.3;;
79346;SDS011;68815;48.810;44.482;2024-03-17T01:32:00;11.1;;;2.1;;
79346;SDS011;68815;48.810;44.482;2024-03-17T01:35:02;8.5;;;2.2;;
79346;SDS011;68815;48.810;44.482;2024-03-17T01:38:05;14.2;;;2.8;;
79346;SDS011;68815;48.810;44.482;2024-03-17T01:41:07;10.4;;;2.2;;
79346;SDS011;68815;48.810;44.482;2024-03-17T01:44:11;8.4;;;2.1;;
79346;SDS011;68815;48.810;44.482;2024-03-17T01:47:24;7;;;1.8;;
79346;SDS011;68815;48.810;44.482;2024-03-17T01:50:28;9.9;;;2.1;;
79346;SDS011;68815;48.810;44.482;2024-03-17T01:53:35;9;;;2.1;;
79346;SDS011;68815;48.810;44.482;2024-03-17T01:56:36;10.9;;;1.9;;
79346;SDS011;68815;48.810;44.482;2024-03-17T01:59:39;8.3;;;1.9;;
79346;SDS011;68815;48.810;44.482;2024-03-17T02:02:41;8.4;;;2;;
79346;SDS011;68815;48.810;44.482;2024-03-17T02:05:43;7.5;;;1.8;;
79346;SDS011;68815;48.810;44.482;2024-03-17T02:08:46;10.2;;;2.3;;
79346;SDS011;68815;48.810;44.482;2024-03-17T02:11:49;6.5;;;1.7;;
79346;SDS011;68815;48.810;44.482;2024-03-17T02:14:51;6.2;;;1.9;;
79346;SDS011;68815;48.810;44.482;2024-03-17T02:17:53;7;;;1.8;;
79346;SDS011;68815;48.810;44.482;2024-03-17T02:20:55;7.7;;;1.5;;
79346;SDS011;68815;48.810;44.482;2024-03-17T02:23:57;6.4;;;1.5;;
79346;SDS011;68815;48.810;44.482;2024-03-17T02:26:59;5.9;;;1.6;;
79346;SDS011;68815;48.810;44.482;2024-03-17T02:30:01;4.6;;;1.6;;
79346;SDS011;68815;48.810;44.482;2024-03-17T02:33:08;6.4;;;1.6;;
79346;SDS011;68815;48.810;44.482;2024-03-17T02:36:10;6.5;;;1.6;;
79346;SDS011;68815;48.810;44.482;2024-03-17T02:39:14;4;;;1.5;;
79346;SDS011;68815;48.810;44.482;2024-03-17T02:42:16;4.8;;;1.8;;
79346;SDS011;68815;48.810;44.482;2024-03-17T02:45:17;4.6;;;1.5;;
79346;SDS011;68815;48.810;44.482;2024-03-17T02:48:19;5.9;;;1.5;;
79346;SDS011;68815;48.810;44.482;2024-03-17T02:51:21;4.4;;;1.3;;
79346;SDS011;68815;48.810;44.482;2024-03-17T02:54:23;4.1;;;1.5;;
79346;SDS011;68815;48.810;44.482;2024-03-17T02:57:25;4;;;1.5;;
79346;SDS011;68815;48.810;44.482;2024-03-17T03:00:28;3.8;;;1.2;;
79346;SDS011;68815;48.810;44.482;2024-03-17T03:03:30;3.2;;;1.1;;
79346;SDS011;68815;48.810;44.482;2024-03-17T03:06:32;4;;;1.2;;
79346;SDS011;68815;48.810;44.482;2024-03-17T03:09:35;4.7;;;1.2;;
79346;SDS011;68815;48.810;44.482;2024-03-17T03:12:37;2.6;;;1.1;;
79346;SDS011;68815;48.810;44.482;2024-03-17T03:15:39;3.7;;;1.2;;
79346;SDS011;68815;48.810;44.482;2024-03-17T03:18:41;2.8;;;1;;
79346;SDS011;68815;48.810;44.482;2024-03-17T03:21:43;3;;;1;;
79346;SDS011;68815;48.810;44.482;2024-03-17T03:24:45;2.9;;;1.1;;
79346;SDS011;68815;48.810;44.482;2024-03-17T03:27:47;2.9;;;1;;
79346;SDS011;68815;48.810;44.482;2024-03-17T03:30:49;2.6;;;0.9;;
79346;SDS011;68815;48.810;44.482;2024-03-17T03:33:51;3;;;0.8;;
79346;SDS011;68815;48.810;44.482;2024-03-17T03:36:53;4.1;;;1;;
79346;SDS011;68815;48.810;44.482;2024-03-17T03:39:55;3.8;;;1.1;;
79346;SDS011;68815;48.810;44.482;2024-03-17T03:42:57;5.3;;;1.5;;
79346;SDS011;68815;48.810;44.482;2024-03-17T03:45:59;6.2;;;1.4;;
79346;SDS011;68815;48.810;44.482;2024-03-17T03:49:01;5.5;;;1.4;;
79346;SDS011;68815;48.810;44.482;2024-03-17T03:52:03;6.4;;;1.5;;
79346;SDS011;68815;48.810;44.482;2024-03-17T03:55:06;6.7;;;1.5;;
79346;SDS011;68815;48.810;44.482;2024-03-17T03:58:09;6.1;;;1.5;;
79346;SDS011;68815;48.810;44.482;2024-03-17T04:01:11;9.9;;;1.7;;
79346;SDS011;68815;48.810;44.482;2024-03-17T04:04:13;4.6;;;1.4;;
79346;SDS011;68815;48.810;44.482;2024-03-17T04:07:14;5.1;;;1.2;;
79346;SDS011;68815;48.810;44.482;2024-03-17T04:10:16;6;;;1.3;;
79346;SDS011;68815;48.810;44.482;2024-03-17T04:13:18;5;;;1.5;;
79346;SDS011;68815;48.810;44.482;2024-03-17T04:16:20;3.9;;;1.4;;
79346;SDS011;68815;48.810;44.482;2024-03-17T04:19:22;4.6;;;1.2;;
79346;SDS011;68815;48.810;44.482;2024-03-17T04:22:24;5.4;;;1.7;;
79346;SDS011;68815;48.810;44.482;2024-03-17T04:25:26;5.3;;;1.4;;
79346;SDS011;68815;48.810;44.482;2024-03-17T04:28:28;4.7;;;1.5;;
79346;SDS011;68815;48.810;44.482;2024-03-17T04:31:30;3.3;;;1.4;;
79346;SDS011;68815;48.810;44.482;2024-03-17T04:34:32;4.6;;;1.4;;
79346;SDS011;68815;48.810;44.482;2024-03-17T04:37:34;3.7;;;1.3;;
79346;SDS011;68815;48.810;44.482;2024-03-17T04:40:40;3.7;;;1.4;;
79346;SDS011;68815;48.810;44.482;2024-03-17T04:43:43;3.7;;;1.1;;
79346;SDS011;68815;48.810;44.482;2024-03-17T04:46:44;3.9;;;1.3;;
79346;SDS011;68815;48.810;44.482;2024-03-17T04:49:46;4.1;;;1.4;;
79346;SDS011;68815;48.810;44.482;2024-03-17T04:52:48;3.3;;;1.3;;
79346;SDS011;68815;48.810;44.482;2024-03-17T04:55:57;4.8;;;1.6;;
79346;SDS011;68815;48.810;44.482;2024-03-17T04:59:00;4.1;;;1.5;;
79346;SDS011;68815;48.810;44.482;2024-03-17T05:02:02;4.3;;;1.6;;
79346;SDS011;68815;48.810;44.482;2024-03-17T05:05:04;6.9;;;1.8;;
79346;SDS011;68815;48.810;44.482;2024-03-17T05:08:06;5;;;1.6;;
79346;SDS011;68815;48.810;44.482;2024-03-17T05:11:08;7.5;;;1.5;;
79346;SDS011;68815;48.810;44.482;2024-03-17T05:14:10;6;;;1.8;;
79346;SDS011;68815;48.810;44.482;2024-03-17T05:17:12;5.3;;;1.7;;
79346;SDS011;68815;48.810;44.482;2024-03-17T05:20:14;5.2;;;1.6;;
79346;SDS011;68815;48.810;44.482;2024-03-17T05:23:16;4.5;;;1.7;;
79346;SDS011;68815;48.810;44.482;2024-03-17T05:26:18;5.1;;;1.6;;
79346;SDS011;68815;48.810;44.482;2024-03-17T05:29:21;4.4;;;1.8;;
79346;SDS011;68815;48.810;44.482;2024-03-17T05:32:23;6.3;;;1.5;;
79346;SDS011;68815;48.810;44.482;2024-03-17T05:35:24;4;;;1.3;;
79346;SDS011;68815;48.810;44.482;2024-03-17T05:38:26;5;;;1.6;;
79346;SDS011;68815;48.810;44.482;2024-03-17T05:41:29;3.5;;;1.5;;
79346;SDS011;68815;48.810;44.482;2024-03-17T05:44:31;4.3;;;1.4;;
79346;SDS011;68815;48.810;44.482;2024-03-17T05:47:33;4.8;;;1.6;;
79346;SDS011;68815;48.810;44.482;2024-03-17T05:50:35;4.9;;;1.5;;
79346;SDS011;68815;48.810;44.482;2024-03-17T05:53:36;3.7;;;1.3;;
79346;SDS011;68815;48.810;44.482;2024-03-17T05:56:39;4;;;1.3;;
79346;SDS011;68815;48.810;44.482;2024-03-17T05:59:41;3.5;;;1.5;;
79346;SDS011;68815;48.810;44.482;2024-03-17T06:02:44;3.6;;;1.4;;
79346;SDS011;68815;48.810;44.482;2024-03-17T06:05:45;3.9;;;1.4;;
79346;SDS011;68815;48.810;44.482;2024-03-17T06:08:47;3.5;;;1.3;;
79346;SDS011;68815;48.810;44.482;2024-03-17T06:11:49;4.3;;;1.5;;
79346;SDS011;68815;48.810;44.482;2024-03-17T06:14:50;3.4;;;1.2;;
79346;SDS011;68815;48.810;44.482;2024-03-17T06:17:53;3.1;;;1.2;;
79346;SDS011;68815;48.810;44.482;2024-03-17T06:20:55;3.1;;;1.2;;
79346;SDS011;68815;48.810;44.482;2024-03-17T06:23:57;3.3;;;1.6;;
79346;SDS011;68815;48.810;44.482;2024-03-17T06:26:58;4.3;;;1.4;;
79346;SDS011;68815;48.810;44.482;2024-03-17T06:30:00;3;;;1.2;;
79346;SDS011;68815;48.810;44.482;2024-03-17T06:33:03;4.8;;;1.3;;
79346;SDS011;68815;48.810;44.482;2024-03-17T06:36:05;3.1;;;1.2;;
79346;SDS011;68815;48.810;44.482;2024-03-17T06:39:08;3;;;1.3;;
79346;SDS011;68815;48.810;44.482;2024-03-17T06:42:09;3;;;1.1;;
79346;SDS011;68815;48.810;44.482;2024-03-17T06:45:12;3.9;;;1.4;;
79346;SDS011;68815;48.810;44.482;2024-03-17T06:48:13;3.8;;;1.3;;
79346;SDS011;68815;48.810;44.482;2024-03-17T06:51:15;4.3;;;1.3;;
79346;SDS011;68815;48.810;44.482;2024-03-17T06:54:17;3.8;;;1.5;;
79346;SDS011;68815;48.810;44.482;2024-03-17T06:57:18;3.8;;;1.5;;
79346;SDS011;68815;48.810;44.482;2024-03-17T07:00:21;4.1;;;1.8;;
79346;SDS011;68815;48.810;44.482;2024-03-17T07:03:23;4.5;;;1.6;;
79346;SDS011;68815;48.810;44.482;2024-03-17T07:06:26;4.1;;;1.7;;
79346;SDS011;68815;48.810;44.482;2024-03-17T07:09:27;4.5;;;1.6;;
79346;SDS011;68815;48.810;44.482;2024-03-17T07:12:29;4.7;;;1.9;;
79346;SDS011;68815;48.810;44.482;2024-03-17T07:15:31;4.6;;;1.7;;
79346;SDS011;68815;48.810;44.482;2024-03-17T07:18:33;4.7;;;1.9;;
79346;SDS011;68815;48.810;44.482;2024-03-17T07:21:36;3.9;;;1.9;;
79346;SDS011;68815;48.810;44.482;2024-03-17T07:24:37;5.5;;;2.2;;
79346;SDS011;68815;48.810;44.482;2024-03-17T07:27:39;4.6;;;1.6;;
79346;SDS011;68815;48.810;44.482;2024-03-17T07:30:46;4.2;;;1.8;;
79346;SDS011;68815;48.810;44.482;2024-03-17T07:33:49;4.1;;;1.8;;
79346;SDS011;68815;48.810;44.482;2024-03-17T07:36:50;5.3;;;2;;
79346;SDS011;68815;48.810;44.482;2024-03-17T07:39:53;4.4;;;1.9;;
79346;SDS011;68815;48.810;44.482;2024-03-17T07:42:55;4.9;;;1.8;;
79346;SDS011;68815;48.810;44.482;2024-03-17T07:45:57;5.2;;;1.8;;
79346;SDS011;68815;48.810;44.482;2024-03-17T07:48:59;6.1;;;1.7;;
79346;SDS011;68815;48.810;44.482;2024-03-17T07:52:00;6.4;;;2.1;;
79346;SDS011;68815;48.810;44.482;2024-03-17T07:55:03;4.4;;;1.6;;
79346;SDS011;68815;48.810;44.482;2024-03-17T07:58:05;6.1;;;1.7;;
79346;SDS011;68815;48.810;44.482;2024-03-17T08:01:08;5.1;;;1.9;;
79346;SDS011;68815;48.810;44.482;2024-03-17T08:04:11;4.2;;;1.5;;
79346;SDS011;68815;48.810;44.482;2024-03-17T08:07:13;4.2;;;1.5;;
79346;SDS011;68815;48.810;44.482;2024-03-17T08:10:15;5.1;;;1.7;;
79346;SDS011;68815;48.810;44.482;2024-03-17T08:13:17;6.3;;;1.9;;
79346;SDS011;68815;48.810;44.482;2024-03-17T08:16:19;5;;;1.8;;
79346;SDS011;68815;48.810;44.482;2024-03-17T08:19:21;5.1;;;2.1;;
79346;SDS011;68815;48.810;44.482;2024-03-17T08:22:23;4.4;;;1.9;;
79346;SDS011;68815;48.810;44.482;2024-03-17T08:25:25;4.5;;;1.9;;
79346;SDS011;68815;48.810;44.482;2024-03-17T08:28:27;4.6;;;1.5;;
79346;SDS011;68815;48.810;44.482;2024-03-17T08:31:29;5.5;;;2;;
79346;SDS011;68815;48.810;44.482;2024-03-17T08:34:32;3.6;;;1.5;;
79346;SDS011;68815;48.810;44.482;2024-03-17T08:37:39;3.6;;;1.6;;
79346;SDS011;68815;48.810;44.482;2024-03-17T08:40:42;4.9;;;1.8;;
79346;SDS011;68815;48.810;44.482;2024-03-17T08:43:43;4.7;;;1.9;;
79346;SDS011;68815;48.810;44.482;2024-03-17T08:46:45;4.9;;;1.9;;
79346;SDS011;68815;48.810;44.482;2024-03-17T08:49:49;5.1;;;1.7;;
79346;SDS011;68815;48.810;44.482;2024-03-17T08:52:51;5.1;;;1.7;;
79346;SDS011;68815;48.810;44.482;2024-03-17T08:55:53;5;;;1.5;;
79346;SDS011;68815;48.810;44.482;2024-03-17T08:58:55;4.1;;;1.4;;
79346;SDS011;68815;48.810;44.482;2024-03-17T09:01:58;4;;;1.5;;
79346;SDS011;68815;48.810;44.482;2024-03-17T09:04:59;3.8;;;1.5;;
79346;SDS011;68815;48.810;44.482;2024-03-17T09:08:01;4;;;1.4;;
79346;SDS011;68815;48.810;44.482;2024-03-17T09:11:06;4.1;;;1.7;;
79346;SDS011;68815;48.810;44.482;2024-03-17T09:14:13;5.3;;;1.7;;
79346;SDS011;68815;48.810;44.482;2024-03-17T09:17:15;4.5;;;1.5;;
79346;SDS011;68815;48.810;44.482;2024-03-17T09:20:17;5.2;;;1.9;;
79346;SDS011;68815;48.810;44.482;2024-03-17T09:23:18;4.3;;;1.9;;
79346;SDS011;68815;48.810;44.482;2024-03-17T09:26:20;3.8;;;1.7;;
79346;SDS011;68815;48.810;44.482;2024-03-17T09:29:22;4.5;;;2;;
79346;SDS011;68815;48.810;44.482;2024-03-17T09:32:24;3.1;;;1.3;;
79346;SDS011;68815;48.810;44.482;2024-03-17T09:35:26;3.8;;;1.7;;
79346;SDS011;68815;48.810;44.482;2024-03-17T09:38:28;6.7;;;1.4;;
79346;SDS011;68815;48.810;44.482;2024-03-17T09:41:31;3.3;;;1.2;;
79346;SDS011;68815;48.810;44.482;2024-03-17T09:44:33;3.5;;;1.3;;
79346;SDS011;68815;48.810;44.482;2024-03-17T09:47:37;3.7;;;1.6;;
79346;SDS011;68815;48.810;44.482;2024-03-17T09:50:39;4.2;;;1.4;;
79346;SDS011;68815;48.810;44.482;2024-03-17T09:53:41;3.7;;;1.2;;
79346;SDS011;68815;48.810;44.482;2024-03-17T09:56:43;3.9;;;1.7;;
79346;SDS011;68815;48.810;44.482;2024-03-17T09:59:50;3.8;;;1.2;;
79346;SDS011;68815;48.810;44.482;2024-03-17T10:02:53;3.7;;;1.6;;
79346;SDS011;68815;48.810;44.482;2024-03-17T10:05:59;3.3;;;1.1;;
79346;SDS011;68815;48.810;44.482;2024-03-17T10:09:01;3.6;;;1.1;;
79346;SDS011;68815;48.810;44.482;2024-03-17T10:12:04;3;;;1.1;;
79346;SDS011;68815;48.810;44.482;2024-03-17T10:15:07;3.9;;;1.1;;
79346;SDS011;68815;48.810;44.482;2024-03-17T10:18:19;3.2;;;1.2;;
79346;SDS011;68815;48.810;44.482;2024-03-17T10:21:25;3.4;;;1.3;;
79346;SDS011;68815;48.810;44.482;2024-03-17T10:24:28;4.7;;;1.4;;
79346;SDS011;68815;48.810;44.482;2024-03-17T10:27:31;3.8;;;1.2;;
79346;SDS011;68815;48.810;44.482;2024-03-17T10:30:33;2.9;;;1;;
79346;SDS011;68815;48.810;44.482;2024-03-17T10:33:34;2.6;;;1;;
79346;SDS011;68815;48.810;44.482;2024-03-17T10:36:36;8.9;;;1.9;;
79346;SDS011;68815;48.810;44.482;2024-03-17T10:39:38;4.5;;;1.4;;
79346;SDS011;68815;48.810;44.482;2024-03-17T10:42:41;4.4;;;1.7;;
79346;SDS011;68815;48.810;44.482;2024-03-17T10:45:43;6.2;;;2;;
79346;SDS011;68815;48.810;44.482;2024-03-17T10:48:45;4.9;;;2.3;;
79346;SDS011;68815;48.810;44.482;2024-03-17T10:51:48;5.2;;;2.2;;
79346;SDS011;68815;48.810;44.482;2024-03-17T10:54:55;3.2;;;1.2;;
79346;SDS011;68815;48.810;44.482;2024-03-17T10:57:57;3.6;;;1.2;;
79346;SDS011;68815;48.810;44.482;2024-03-17T11:01:04;2.8;;;0.9;;
79346;SDS011;68815;48.810;44.482;2024-03-17T11:04:06;3.6;;;1.3;;
79346;SDS011;68815;48.810;44.482;2024-03-17T11:07:15;4.4;;;1.7;;
79346;SDS011;68815;48.810;44.482;2024-03-17T11:10:20;3.6;;;1;;
79346;SDS011;68815;48.810;44.482;2024-03-17T11:13:23;3.4;;;1.3;;
79346;SDS011;68815;48.810;44.482;2024-03-17T11:16:26;3;;;1.2;;
79346;SDS011;68815;48.810;44.482;2024-03-17T11:19:27;4.7;;;1.7;;
79346;SDS011;68815;48.810;44.482;2024-03-17T11:25:50;3.7;;;1.6;;
79346;SDS011;68815;48.810;44.482;2024-03-17T11:28:54;3.7;;;1.3;;
79346;SDS011;68815;48.810;44.482;2024-03-17T11:31:55;7.7;;;5.1;;
79346;SDS011;68815;48.810;44.482;2024-03-17T11:41:39;3.2;;;1.4;;
79346;SDS011;68815;48.810;44.482;2024-03-17T11:44:43;2.7;;;1;;
79346;SDS011;68815;48.810;44.482;2024-03-17T11:47:45;3.9;;;1;;
79346;SDS011;68815;48.810;44.482;2024-03-17T11:50:47;3.6;;;1.2;;
79346;SDS011;68815;48.810;44.482;2024-03-17T11:53:57;3.2;;;1.1;;
79346;SDS011;68815;48.810;44.482;2024-03-17T11:57:01;3.6;;;1.2;;
79346;SDS011;68815;48.810;44.482;2024-03-17T12:00:05;3;;;1.2;;
79346;SDS011;68815;48.810;44.482;2024-03-17T12:03:09;3.2;;;1.5;;
79346;SDS011;68815;48.810;44.482;2024-03-17T12:06:12;4.1;;;1.6;;
79346;SDS011;68815;48.810;44.482;2024-03-17T12:09:18;7;;;2.2;;
79346;SDS011;68815;48.810;44.482;2024-03-17T12:12:21;6;;;2.2;;
79346;SDS011;68815;48.810;44.482;2024-03-17T12:15:24;3.3;;;1.4;;
79346;SDS011;68815;48.810;44.482;2024-03-17T12:18:26;3;;;1.1;;
79346;SDS011;68815;48.810;44.482;2024-03-17T12:21:28;3.6;;;1;;
79346;SDS011;68815;48.810;44.482;2024-03-17T12:24:30;2.7;;;1;;
79346;SDS011;68815;48.810;44.482;2024-03-17T12:27:33;4;;;1.2;;
79346;SDS011;68815;48.810;44.482;2024-03-17T12:30:35;2.5;;;1;;
79346;SDS011;68815;48.810;44.482;2024-03-17T12:33:37;2.3;;;0.9;;
79346;SDS011;68815;48.810;44.482;2024-03-17T12:36:39;2.5;;;0.9;;
79346;SDS011;68815;48.810;44.482;2024-03-17T12:39:41;2.6;;;1;;
79346;SDS011;68815;48.810;44.482;2024-03-17T12:42:46;2.5;;;0.8;;
79346;SDS011;68815;48.810;44.482;2024-03-17T12:45:49;2.5;;;0.9;;
79346;SDS011;68815;48.810;44.482;2024-03-17T12:48:58;2.9;;;0.9;;
79346;SDS011;68815;48.810;44.482;2024-03-17T12:52:01;2.6;;;0.9;;
79346;SDS011;68815;48.810;44.482;2024-03-17T12:55:03;2.9;;;1.1;;
79346;SDS011;68815;48.810;44.482;2024-03-17T12:58:06;3.1;;;1.2;;
79346;SDS011;68815;48.810;44.482;2024-03-17T13:01:11;4.4;;;1.2;;
79346;SDS011;68815;48.810;44.482;2024-03-17T13:04:14;3.2;;;1.1;;
79346;SDS011;68815;48.810;44.482;2024-03-17T13:07:16;3.9;;;1.1;;
79346;SDS011;68815;48.810;44.482;2024-03-17T13:10:18;3;;;1.1;;
79346;SDS011;68815;48.810;44.482;2024-03-17T13:13:21;3.5;;;1.7;;
79346;SDS011;68815;48.810;44.482;2024-03-17T13:16:22;2.7;;;1;;
79346;SDS011;68815;48.810;44.482;2024-03-17T13:19:24;2.6;;;1;;
79346;SDS011;68815;48.810;44.482;2024-03-17T13:22:26;2.7;;;1;;
79346;SDS011;68815;48.810;44.482;2024-03-17T13:25:28;2.5;;;1;;
79346;SDS011;68815;48.810;44.482;2024-03-17T13:28:31;4.4;;;1.8;;
79346;SDS011;68815;48.810;44.482;2024-03-17T13:31:33;3.5;;;1.5;;
79346;SDS011;68815;48.810;44.482;2024-03-17T13:34:35;4;;;1.9;;
79346;SDS011;68815;48.810;44.482;2024-03-17T13:37:37;4.5;;;1.9;;
79346;SDS011;68815;48.810;44.482;2024-03-17T13:40:39;4.3;;;2.2;;
79346;SDS011;68815;48.810;44.482;2024-03-17T13:43:42;5;;;2;;
79346;SDS011;68815;48.810;44.482;2024-03-17T13:46:44;3.8;;;1.8;;
79346;SDS011;68815;48.810;44.482;2024-03-17T13:49:46;3.8;;;1.6;;
79346;SDS011;68815;48.810;44.482;2024-03-17T13:52:49;3.3;;;1.5;;
79346;SDS011;68815;48.810;44.482;2024-03-17T13:55:51;3.3;;;1.7;;
79346;SDS011;68815;48.810;44.482;2024-03-17T13:58:53;3.3;;;1.2;;
79346;SDS011;68815;48.810;44.482;2024-03-17T14:01:55;2.7;;;1;;
79346;SDS011;68815;48.810;44.482;2024-03-17T14:04:56;2.9;;;1;;
79346;SDS011;68815;48.810;44.482;2024-03-17T14:07:58;4.7;;;1.1;;
79346;SDS011;68815;48.810;44.482;2024-03-17T14:11:01;2.8;;;1;;
79346;SDS011;68815;48.810;44.482;2024-03-17T14:14:06;3.8;;;1.5;;
79346;SDS011;68815;48.810;44.482;2024-03-17T14:17:24;3;;;1.2;;
79346;SDS011;68815;48.810;44.482;2024-03-17T14:20:33;4.2;;;1.4;;
79346;SDS011;68815;48.810;44.482;2024-03-17T14:23:42;4.4;;;1.8;;
79346;SDS011;68815;48.810;44.482;2024-03-17T14:26:51;4.2;;;1.7;;
79346;SDS011;68815;48.810;44.482;2024-03-17T14:29:53;5;;;1.4;;
79346;SDS011;68815;48.810;44.482;2024-03-17T14:33:06;5.9;;;1.4;;
79346;SDS011;68815;48.810;44.482;2024-03-17T14:36:12;4.5;;;1.2;;
79346;SDS011;68815;48.810;44.482;2024-03-17T14:39:15;3;;;1.2;;
79346;SDS011;68815;48.810;44.482;2024-03-17T14:42:24;4.5;;;1.5;;
79346;SDS011;68815;48.810;44.482;2024-03-17T14:45:26;5.1;;;1.5;;
79346;SDS011;68815;48.810;44.482;2024-03-17T14:48:28;5;;;1.9;;
79346;SDS011;68815;48.810;44.482;2024-03-17T14:51:29;7.2;;;2.6;;
79346;SDS011;68815;48.810;44.482;2024-03-17T14:54:31;7.6;;;2.7;;
79346;SDS011;68815;48.810;44.482;2024-03-17T14:57:33;4.8;;;2.2;;
79346;SDS011;68815;48.810;44.482;2024-03-17T15:00:35;4.5;;;1.3;;
79346;SDS011;68815;48.810;44.482;2024-03-17T15:03:37;3.7;;;1.6;;
79346;SDS011;68815;48.810;44.482;2024-03-17T15:06:39;5.3;;;1.5;;
79346;SDS011;68815;48.810;44.482;2024-03-17T15:09:42;3.6;;;1.5;;
79346;SDS011;68815;48.810;44.482;2024-03-17T15:12:43;5.4;;;1.4;;
79346;SDS011;68815;48.810;44.482;2024-03-17T15:15:45;5.1;;;1.5;;
79346;SDS011;68815;48.810;44.482;2024-03-17T15:18:47;4;;;1.7;;
79346;SDS011;68815;48.810;44.482;2024-03-17T15:21:49;3.7;;;1.4;;
79346;SDS011;68815;48.810;44.482;2024-03-17T15:24:51;3.2;;;1.6;;
79346;SDS011;68815;48.810;44.482;2024-03-17T15:27:52;4.1;;;1.7;;
79346;SDS011;68815;48.810;44.482;2024-03-17T15:30:54;5.3;;;1.6;;
79346;SDS011;68815;48.810;44.482;2024-03-17T15:33:56;3.7;;;1.4;;
79346;SDS011;68815;48.810;44.482;2024-03-17T15:36:59;4.5;;;1.4;;
79346;SDS011;68815;48.810;44.482;2024-03-17T15:40:01;4.5;;;1.7;;
79346;SDS011;68815;48.810;44.482;2024-03-17T15:43:04;3.6;;;1.7;;
79346;SDS011;68815;48.810;44.482;2024-03-17T15:46:06;4.3;;;1.7;;
79346;SDS011;68815;48.810;44.482;2024-03-17T15:49:08;3.1;;;1.2;;
79346;SDS011;68815;48.810;44.482;2024-03-17T15:52:10;3.7;;;1.4;;
79346;SDS011;68815;48.810;44.482;2024-03-17T15:55:12;3.1;;;1.3;;
79346;SDS011;68815;48.810;44.482;2024-03-17T15:58:14;3;;;1.3;;
79346;SDS011;68815;48.810;44.482;2024-03-17T16:01:15;3.2;;;1.5;;
79346;SDS011;68815;48.810;44.482;2024-03-17T16:04:17;3.5;;;1.5;;
79346;SDS011;68815;48.810;44.482;2024-03-17T16:07:19;3.2;;;1.5;;
79346;SDS011;68815;48.810;44.482;2024-03-17T16:10:21;3.2;;;1.3;;
79346;SDS011;68815;48.810;44.482;2024-03-17T16:13:23;3.9;;;1.3;;
79346;SDS011;68815;48.810;44.482;2024-03-17T16:16:25;3.7;;;1.4;;
79346;SDS011;68815;48.810;44.482;2024-03-17T16:19:28;3.1;;;1.3;;
79346;SDS011;68815;48.810;44.482;2024-03-17T16:22:32;3.8;;;1.4;;
79346;SDS011;68815;48.810;44.482;2024-03-17T16:25:34;3.9;;;1.4;;
79346;SDS011;68815;48.810;44.482;2024-03-17T16:28:36;4.2;;;1.5;;
79346;SDS011;68815;48.810;44.482;2024-03-17T16:31:39;3.3;;;1.6;;
79346;SDS011;68815;48.810;44.482;2024-03-17T16:34:42;3.7;;;1.6;;
79346;SDS011;68815;48.810;44.482;2024-03-17T16:37:44;3.4;;;1.4;;
79346;SDS011;68815;48.810;44.482;2024-03-17T16:40:45;3.6;;;1.8;;
79346;SDS011;68815;48.810;44.482;2024-03-17T16:43:50;4.2;;;1.7;;
79346;SDS011;68815;48.810;44.482;2024-03-17T16:50:24;4.1;;;1.5;;
79346;SDS011;68815;48.810;44.482;2024-03-17T16:53:26;3.5;;;1.3;;
79346;SDS011;68815;48.810;44.482;2024-03-17T16:56:28;3.6;;;1.6;;
79346;SDS011;68815;48.810;44.482;2024-03-17T16:59:31;3.8;;;1.7;;
79346;SDS011;68815;48.810;44.482;2024-03-17T17:02:33;4.8;;;1.4;;
79346;SDS011;68815;48.810;44.482;2024-03-17T17:05:35;3.2;;;1.5;;
79346;SDS011;68815;48.810;44.482;2024-03-17T17:08:36;4.2;;;1.5;;
79346;SDS011;68815;48.810;44.482;2024-03-17T17:11:38;3.6;;;1.6;;
79346;SDS011;68815;48.810;44.482;2024-03-17T17:14:40;3.6;;;1.4;;
79346;SDS011;68815;48.810;44.482;2024-03-17T17:17:42;3.7;;;1.6;;
79346;SDS011;68815;48.810;44.482;2024-03-17T17:20:44;3.6;;;1.5;;
79346;SDS011;68815;48.810;44.482;2024-03-17T17:23:47;3.3;;;1.4;;
79346;SDS011;68815;48.810;44.482;2024-03-17T17:26:49;3.2;;;1.5;;
79346;SDS011;68815;48.810;44.482;2024-03-17T17:29:50;4;;;1.6;;
79346;SDS011;68815;48.810;44.482;2024-03-17T17:32:53;3.6;;;1.5;;
79346;SDS011;68815;48.810;44.482;2024-03-17T17:35:55;3.1;;;1.5;;
79346;SDS011;68815;48.810;44.482;2024-03-17T17:38:57;3.6;;;1.5;;
79346;SDS011;68815;48.810;44.482;2024-03-17T17:41:59;3.4;;;1.5;;
79346;SDS011;68815;48.810;44.482;2024-03-17T17:45:02;4.3;;;1.7;;
79346;SDS011;68815;48.810;44.482;2024-03-17T17:48:06;3.1;;;1.5;;
79346;SDS011;68815;48.810;44.482;2024-03-17T17:51:10;3.9;;;1.7;;
79346;SDS011;68815;48.810;44.482;2024-03-17T17:54:13;3.9;;;1.6;;
79346;SDS011;68815;48.810;44.482;2024-03-17T17:57:16;3.8;;;1.7;;
79346;SDS011;68815;48.810;44.482;2024-03-17T18:00:18;4.2;;;1.7;;
79346;SDS011;68815;48.810;44.482;2024-03-17T18:03:20;6.5;;;2.1;;
79346;SDS011;68815;48.810;44.482;2024-03-17T18:06:22;5;;;2.1;;
79346;SDS011;68815;48.810;44.482;2024-03-17T18:09:24;4.5;;;1.8;;
79346;SDS011;68815;48.810;44.482;2024-03-17T18:12:26;4.4;;;1.9;;
79346;SDS011;68815;48.810;44.482;2024-03-17T18:15:28;4.4;;;1.8;;
79346;SDS011;68815;48.810;44.482;2024-03-17T18:18:30;4.8;;;2;;
79346;SDS011;68815;48.810;44.482;2024-03-17T18:21:33;4.5;;;1.9;;
79346;SDS011;68815;48.810;44.482;2024-03-17T18:24:35;4;;;1.9;;
79346;SDS011;68815;48.810;44.482;2024-03-17T18:27:37;5.3;;;2;;
79346;SDS011;68815;48.810;44.482;2024-03-17T18:30:39;4.8;;;1.7;;
79346;SDS011;68815;48.810;44.482;2024-03-17T18:33:41;5.6;;;2;;
79346;SDS011;68815;48.810;44.482;2024-03-17T18:36:43;4.8;;;1.9;;
79346;SDS011;68815;48.810;44.482;2024-03-17T18:39:45;4.4;;;1.6;;
79346;SDS011;68815;48.810;44.482;2024-03-17T18:42:46;3.8;;;1.8;;
79346;SDS011;68815;48.810;44.482;2024-03-17T18:45:48;5.4;;;2.2;;
79346;SDS011;68815;48.810;44.482;2024-03-17T18:48:50;6.9;;;2.2;;
79346;SDS011;68815;48.810;44.482;2024-03-17T18:51:54;4.4;;;2;;
79346;SDS011;68815;48.810;44.482;2024-03-17T18:54:56;4.2;;;2.2;;